Time;durP1;ratioP1;P1;durP2;ratioP2;P2;SDS_P1;SDS_P2;PMS_P1;PMS_P2;Temp;Humidity;BMP_temperature;BMP_pressure;BME280_temperature;BME280_humidity;BME280_pressure;Samples;Min_cycle;Max_cycle;Signal;HPM_P1;HPM_P2
2022/12/05 00:00:20;;;;;;;31.95;13.27;;;5.80;99.90;;;;;;5031962;28;20017;-67
2022/12/05 00:02:46;;;;;;;27.65;11.88;;;5.80;99.90;;;;;;5031795;28;20603;-67
2022/12/05 00:05:11;;;;;;;33.15;13.68;;;5.80;99.90;;;;;;5031826;28;20079;-67
2022/12/05 00:07:37;;;;;;;33.92;13.05;;;5.80;99.90;;;;;;5031150;28;20473;-67
2022/12/05 00:10:04;;;;;;;28.00;11.60;;;5.80;99.90;;;;;;5030312;28;20037;-66
2022/12/05 00:12:30;;;;;;;33.20;13.95;;;5.80;99.90;;;;;;5031277;28;20022;-67
2022/12/05 00:14:55;;;;;;;34.30;14.15;;;5.80;99.90;;;;;;5030521;28;20025;-67
2022/12/05 00:17:21;;;;;;;32.13;13.50;;;5.80;99.90;;;;;;5031271;28;20068;-66
2022/12/05 00:19:46;;;;;;;29.23;12.77;;;5.80;99.90;;;;;;5032070;28;20021;-67
2022/12/05 00:22:12;;;;;;;29.38;12.80;;;5.80;99.90;;;;;;5031908;28;20030;-67
2022/12/05 00:24:38;;;;;;;33.58;13.10;;;5.80;99.90;;;;;;5032383;28;20063;-68
2022/12/05 00:27:04;;;;;;;32.75;13.65;;;5.80;99.90;;;;;;5032151;28;20231;-67
2022/12/05 00:29:29;;;;;;;34.63;14.20;;;5.90;99.90;;;;;;5031946;28;20362;-67
2022/12/05 00:31:56;;;;;;;30.42;13.95;;;5.90;99.90;;;;;;5032101;28;20025;-67
2022/12/05 00:34:21;;;;;;;30.58;14.02;;;5.80;99.90;;;;;;5032129;28;20080;-67
2022/12/05 00:36:47;;;;;;;34.13;14.95;;;5.80;99.90;;;;;;5032051;28;20026;-67
2022/12/05 00:39:15;;;;;;;32.58;13.82;;;5.90;99.90;;;;;;5032282;28;20072;-67
2022/12/05 00:41:41;;;;;;;33.90;13.93;;;5.90;99.90;;;;;;5032093;28;20508;-67
2022/12/05 00:44:07;;;;;;;34.95;14.38;;;5.90;99.90;;;;;;5034361;28;20026;-67
2022/12/05 00:46:34;;;;;;;30.48;13.82;;;5.90;99.90;;;;;;5035643;28;20355;-67
2022/12/05 00:49:02;;;;;;;32.50;13.57;;;5.90;99.90;;;;;;5034406;28;20061;-67
2022/12/05 00:51:30;;;;;;;28.35;12.82;;;5.90;99.90;;;;;;5035558;28;20037;-67
2022/12/05 00:54:06;;;;;;;29.85;13.43;;;5.90;99.90;;;;;;5035663;28;20022;-67
2022/12/05 00:56:32;;;;;;;33.10;13.70;;;5.90;99.90;;;;;;5034174;28;20029;-68
2022/12/05 00:58:59;;;;;;;30.52;14.00;;;5.90;99.90;;;;;;5035276;28;20428;-67
2022/12/05 01:01:34;;;;;;;32.83;13.65;;;5.90;99.90;;;;;;5035234;28;20076;-68
2022/12/05 01:04:08;;;;;;;32.65;13.43;;;5.90;99.90;;;;;;5035249;28;20025;-67
2022/12/05 01:06:34;;;;;;;30.25;12.80;;;5.90;99.90;;;;;;5034600;28;20028;-67
2022/12/05 01:08:59;;;;;;;31.20;13.60;;;5.90;99.90;;;;;;5038243;28;20426;-67
2022/12/05 01:11:25;;;;;;;31.45;12.23;;;5.90;99.90;;;;;;5051346;28;20111;-67
2022/12/05 01:13:51;;;;;;;29.63;13.02;;;5.90;99.90;;;;;;5038425;28;20017;-67
2022/12/05 01:16:21;;;;;;;28.67;11.13;;;5.90;99.90;;;;;;5047849;28;20017;-67
2022/12/05 01:18:47;;;;;;;33.03;14.05;;;5.90;99.90;;;;;;5046185;28;20503;-67
2022/12/05 01:21:12;;;;;;;28.20;13.45;;;6.00;99.90;;;;;;5040027;28;20029;-67
2022/12/05 01:23:38;;;;;;;27.35;11.75;;;6.00;99.90;;;;;;5051348;28;20028;-67
2022/12/05 01:26:09;;;;;;;28.65;11.85;;;6.00;99.90;;;;;;5038261;28;20182;-67
2022/12/05 01:28:35;;;;;;;27.45;11.85;;;6.00;99.90;;;;;;5045090;28;20040;-67
2022/12/05 01:31:07;;;;;;;30.75;12.98;;;6.00;99.90;;;;;;5047711;28;20472;-67
2022/12/05 01:33:33;;;;;;;30.33;12.60;;;6.00;99.90;;;;;;5038209;28;20030;-67
2022/12/05 01:35:59;;;;;;;32.75;12.82;;;6.00;99.90;;;;;;5049832;28;20064;-67
2022/12/05 01:38:25;;;;;;;26.85;11.43;;;6.00;99.90;;;;;;5035113;28;20052;-67
2022/12/05 01:41:02;;;;;;;29.58;11.93;;;6.00;99.90;;;;;;5036370;28;20031;-67
2022/12/05 01:43:28;;;;;;;30.80;12.32;;;6.00;99.90;;;;;;5050914;28;20025;-66
2022/12/05 01:45:53;;;;;;;25.20;10.70;;;6.00;99.90;;;;;;5037847;28;20055;-66
2022/12/05 01:48:30;;;;;;;28.95;11.65;;;5.90;99.90;;;;;;5046987;28;20096;-66
2022/12/05 01:50:57;;;;;;;27.90;10.95;;;6.00;99.90;;;;;;5046109;28;20334;-66
2022/12/05 01:53:24;;;;;;;27.33;10.95;;;6.00;99.90;;;;;;5037990;28;20100;-66
2022/12/05 01:55:50;;;;;;;28.65;11.82;;;6.00;99.90;;;;;;5050661;28;20021;-66
2022/12/05 01:58:17;;;;;;;29.75;11.98;;;6.00;99.90;;;;;;5034420;28;20025;-66
2022/12/05 02:00:43;;;;;;;25.98;10.73;;;6.00;99.90;;;;;;5044225;28;20396;-66
2022/12/05 02:03:14;;;;;;;26.25;11.30;;;6.00;99.90;;;;;;5040032;28;20028;-66
2022/12/05 02:05:40;;;;;;;24.70;10.82;;;6.00;99.90;;;;;;5050126;28;20025;-66
2022/12/05 02:08:09;;;;;;;27.08;11.65;;;6.00;99.90;;;;;;5039792;28;20029;-66
2022/12/05 02:10:55;;;;;;;28.98;11.30;;;6.00;99.90;;;;;;5046344;28;20408;-67
2022/12/05 02:13:29;;;;;;;24.75;10.68;;;6.00;99.90;;;;;;5044930;28;20147;-67
2022/12/05 02:16:03;;;;;;;25.88;10.18;;;6.10;99.90;;;;;;5021520;28;20057;-66
2022/12/05 02:19:01;;;;;;;24.02;10.15;;;6.10;99.90;;;;;;5053352;28;20357;-66
2022/12/05 02:21:53;;;;;;;28.95;11.30;;;6.10;99.90;;;;;;5035386;28;20042;-66
2022/12/05 02:24:40;;;;;;;28.52;11.90;;;6.10;99.90;;;;;;5046198;28;20097;-66
2022/12/05 02:27:35;;;;;;;26.77;10.65;;;6.10;99.90;;;;;;5047361;28;20103;-66
2022/12/05 02:30:09;;;;;;;25.95;11.23;;;6.10;99.90;;;;;;5037951;28;20028;-67
2022/12/05 02:33:03;;;;;;;23.10;10.55;;;6.10;99.90;;;;;;5043715;28;20032;-66
2022/12/05 02:35:43;;;;;;;28.05;11.75;;;6.10;99.90;;;;;;5049896;28;20021;-66
2022/12/05 02:38:24;;;;;;;29.35;11.88;;;6.10;99.90;;;;;;5039305;28;20457;-66
2022/12/05 02:41:18;;;;;;;29.55;10.85;;;6.10;99.90;;;;;;5042708;28;20483;-66
2022/12/05 02:44:00;;;;;;;27.52;11.35;;;6.20;99.90;;;;;;5015309;28;20041;-66
2022/12/05 02:46:29;;;;;;;26.95;11.63;;;6.10;99.90;;;;;;5045024;28;20119;-67
2022/12/05 02:49:00;;;;;;;27.15;12.48;;;6.20;99.90;;;;;;5045402;28;20116;-67
2022/12/05 02:51:30;;;;;;;23.98;11.15;;;6.20;99.90;;;;;;5035211;28;20045;-67
2022/12/05 02:54:01;;;;;;;27.10;10.65;;;6.20;99.90;;;;;;5033712;28;20132;-67
2022/12/05 02:56:30;;;;;;;22.20;9.95;;;6.20;99.90;;;;;;5034431;28;20080;-67
2022/12/05 02:58:56;;;;;;;27.75;11.07;;;6.20;99.90;;;;;;5035283;28;20071;-67
2022/12/05 03:01:26;;;;;;;25.08;10.32;;;6.20;99.90;;;;;;5033610;28;20017;-67
2022/12/05 03:03:52;;;;;;;28.60;12.73;;;6.30;99.90;;;;;;5034582;28;20412;-68
2022/12/05 03:06:45;;;;;;;25.83;10.95;;;6.30;99.90;;;;;;5032309;28;20504;-68
2022/12/05 03:09:31;;;;;;;24.08;10.25;;;6.30;99.90;;;;;;5032210;28;20108;-67
2022/12/05 03:12:16;;;;;;;27.67;11.18;;;6.30;99.90;;;;;;5034585;28;20139;-68
2022/12/05 03:14:51;;;;;;;25.20;10.40;;;6.20;99.90;;;;;;5036126;28;20022;-68
2022/12/05 03:17:23;;;;;;;26.45;11.13;;;6.20;99.90;;;;;;5033870;28;20108;-68
2022/12/05 03:20:03;;;;;;;;;;;6.30;99.90;;;;;;5035251;28;20017;-68
2022/12/05 03:22:41;;;;;;;26.30;12.60;;;6.30;99.90;;;;;;5033560;28;20261;-68
2022/12/05 03:25:07;;;;;;;25.17;10.80;;;6.20;99.90;;;;;;5032482;28;20049;-67
2022/12/05 03:27:46;;;;;;;29.45;11.75;;;6.30;99.90;;;;;;5032685;28;20026;-67
2022/12/05 03:30:15;;;;;;;24.20;10.25;;;6.30;99.90;;;;;;5034066;28;20100;-68
2022/12/05 03:32:56;;;;;;;28.52;11.40;;;6.30;99.90;;;;;;5030254;28;20056;-68
2022/12/05 03:35:39;;;;;;;24.33;11.13;;;6.30;99.90;;;;;;5035035;28;20050;-67
2022/12/05 03:38:13;;;;;;;28.10;11.50;;;6.30;99.90;;;;;;5035547;28;20440;-68
2022/12/05 03:41:06;;;;;;;26.10;11.57;;;6.30;99.90;;;;;;5034044;28;20028;-68
2022/12/05 03:43:58;;;;;;;27.27;11.18;;;6.30;99.90;;;;;;5033747;28;20021;-67
2022/12/05 03:46:39;;;;;;;27.33;11.73;;;6.30;99.90;;;;;;5031496;28;20088;-67
2022/12/05 03:49:28;;;;;;;28.23;11.90;;;6.30;99.90;;;;;;5030320;28;20033;-68
2022/12/05 03:52:08;;;;;;;26.35;11.45;;;6.30;99.90;;;;;;5029517;28;20516;-68
2022/12/05 03:54:51;;;;;;;26.25;10.13;;;6.30;99.90;;;;;;5032936;28;20022;-67
2022/12/05 03:57:22;;;;;;;26.50;10.80;;;6.30;99.90;;;;;;5034123;28;20013;-67
2022/12/05 04:00:14;;;;;;;26.95;11.10;;;6.30;99.90;;;;;;5037890;28;20025;-67
2022/12/05 04:02:53;;;;;;;;;;;6.40;99.90;;;;;;5035524;28;20021;-68
2022/12/05 04:05:23;;;;;;;26.27;10.68;;;6.40;99.90;;;;;;5032332;28;20353;-67
2022/12/05 04:07:58;;;;;;;26.30;10.20;;;6.40;99.90;;;;;;5037320;28;20746;-67
2022/12/05 04:10:28;;;;;;;30.15;11.38;;;6.40;99.90;;;;;;5034820;28;20037;-68
2022/12/05 04:12:57;;;;;;;27.85;10.38;;;6.40;99.90;;;;;;5032565;28;20032;-68
2022/12/05 04:17:02;;;;;;;28.55;12.23;;;6.40;99.90;;;;;;5033706;28;20033;-68
2022/12/05 04:18:18;;;;;;;28.67;11.55;;;6.40;99.90;;;;;;5032999;28;20061;-67
2022/12/05 04:23:30;;;;;;;28.30;11.95;;;6.40;99.90;;;;;;5035608;28;20060;-68
2022/12/05 04:26:19;;;;;;;31.20;13.32;;;6.50;99.90;;;;;;5039309;28;20060;-67
2022/12/05 04:28:50;;;;;;;28.80;11.38;;;6.40;99.90;;;;;;5035168;28;20018;-68
2022/12/05 04:31:22;;;;;;;32.15;12.90;;;6.40;99.90;;;;;;5036451;28;20079;-67
2022/12/05 04:33:56;;;;;;;29.92;12.57;;;6.50;99.90;;;;;;5037291;28;20441;-68
2022/12/05 04:36:49;;;;;;;32.42;13.70;;;6.50;99.90;;;;;;5037047;28;20033;-67
2022/12/05 04:39:40;;;;;;;44.22;14.43;;;6.50;99.90;;;;;;5038201;28;20041;-68
2022/12/05 04:42:14;;;;;;;33.22;12.38;;;6.50;99.90;;;;;;5036138;28;20021;-68
2022/12/05 04:44:45;;;;;;;31.13;11.55;;;6.50;99.90;;;;;;5037246;28;20441;-68
2022/12/05 04:47:13;;;;;;;39.00;13.80;;;6.50;99.90;;;;;;5037170;28;20351;-67
2022/12/05 04:49:41;;;;;;;37.38;14.85;;;6.50;99.90;;;;;;5038008;28;20151;-68
2022/12/05 04:52:09;;;;;;;38.65;14.18;;;6.50;99.90;;;;;;5036125;28;20037;-67
2022/12/05 04:54:45;;;;;;;36.20;14.95;;;6.50;99.90;;;;;;5038566;28;20033;-67
2022/12/05 04:57:53;;;;;;;35.15;14.90;;;6.50;99.90;;;;;;5038879;28;20021;-67
2022/12/05 05:00:19;;;;;;;30.85;12.15;;;6.50;99.90;;;;;;5039871;28;20037;-67
2022/12/05 05:02:57;;;;;;;32.20;13.15;;;6.50;99.90;;;;;;5038193;28;20173;-68
2022/12/05 05:05:23;;;;;;;35.83;14.18;;;6.50;99.90;;;;;;5037727;28;20071;-68
2022/12/05 05:07:51;;;;;;;31.10;12.85;;;6.50;99.90;;;;;;5038274;28;20029;-68
2022/12/05 05:10:31;;;;;;;32.05;12.07;;;6.50;99.90;;;;;;5038162;28;20029;-67
2022/12/05 05:12:57;;;;;;;33.88;14.02;;;6.50;99.90;;;;;;5035907;28;20021;-68
2022/12/05 05:15:22;;;;;;;29.15;12.70;;;6.50;99.90;;;;;;5037344;28;20025;-68
2022/12/05 05:17:48;;;;;;;30.73;12.50;;;6.50;99.90;;;;;;5051468;28;20025;-68
2022/12/05 05:20:22;;;;;;;28.58;13.25;;;6.50;99.90;;;;;;5040345;28;20025;-68
2022/12/05 05:22:52;;;;;;;30.20;13.10;;;6.50;99.90;;;;;;5046282;28;20029;-68
2022/12/05 05:25:18;;;;;;;31.20;14.30;;;6.50;99.90;;;;;;5039787;28;20155;-68
2022/12/05 05:27:51;;;;;;;35.13;15.48;;;6.50;99.90;;;;;;5051589;28;20029;-68
2022/12/05 05:30:18;;;;;;;29.58;12.02;;;6.60;99.90;;;;;;5028593;28;20051;-68
2022/12/05 05:32:44;;;;;;;29.63;12.55;;;6.60;99.90;;;;;;5035620;28;20449;-68
2022/12/05 05:35:10;;;;;;;28.92;11.18;;;6.60;99.90;;;;;;5033476;28;20075;-68
2022/12/05 05:37:36;;;;;;;29.08;12.57;;;6.60;99.90;;;;;;5034635;28;20503;-68
2022/12/05 05:40:03;;;;;;;28.60;11.82;;;6.60;99.90;;;;;;5034767;28;20030;-68
2022/12/05 05:42:28;;;;;;;28.02;12.05;;;6.60;99.90;;;;;;5034751;28;20026;-68
2022/12/05 05:44:54;;;;;;;28.23;11.40;;;6.60;99.90;;;;;;5034583;28;20237;-68
2022/12/05 05:47:19;;;;;;;26.73;10.88;;;6.60;99.90;;;;;;5034395;28;20373;-68
2022/12/05 05:49:45;;;;;;;23.80;10.10;;;6.60;99.90;;;;;;5034446;28;20107;-67
2022/12/05 05:52:11;;;;;;;23.60;10.00;;;6.60;99.90;;;;;;5034543;28;20041;-68
2022/12/05 05:54:36;;;;;;;23.00;10.23;;;6.50;99.90;;;;;;5034596;28;20025;-67
2022/12/05 05:57:02;;;;;;;23.20;10.60;;;6.50;99.90;;;;;;5034701;28;20033;-68
2022/12/05 05:59:27;;;;;;;23.40;9.98;;;6.60;99.90;;;;;;5034709;28;20033;-68
2022/12/05 06:01:53;;;;;;;22.42;10.07;;;6.60;99.90;;;;;;5034596;28;20474;-68
2022/12/05 06:04:18;;;;;;;24.60;9.50;;;6.60;99.90;;;;;;5034637;28;20092;-68
2022/12/05 06:06:44;;;;;;;25.88;10.60;;;6.60;99.90;;;;;;5034599;28;20059;-68
2022/12/05 06:09:10;;;;;;;22.42;9.98;;;6.60;99.90;;;;;;5033067;28;20087;-68
2022/12/05 06:11:35;;;;;;;22.60;11.15;;;6.60;99.90;;;;;;5034346;28;20065;-68
2022/12/05 06:14:01;;;;;;;25.58;11.55;;;6.60;99.90;;;;;;5034119;28;20033;-68
2022/12/05 06:16:27;;;;;;;20.58;8.90;;;6.70;99.90;;;;;;5034391;28;20033;-68
2022/12/05 06:18:53;;;;;;;25.60;11.15;;;6.60;99.90;;;;;;5034329;28;20028;-67
2022/12/05 06:21:19;;;;;;;22.77;10.52;;;6.60;99.90;;;;;;5034375;28;20021;-67
2022/12/05 06:23:45;;;;;;;26.02;10.48;;;6.60;99.90;;;;;;5034142;28;20473;-67
2022/12/05 06:26:13;;;;;;;19.48;9.65;;;6.70;99.90;;;;;;5034036;28;20097;-67
2022/12/05 06:28:39;;;;;;;52.42;10.75;;;6.70;99.90;;;;;;5034349;28;20048;-67
2022/12/05 06:31:09;;;;;;;25.10;11.15;;;6.70;99.90;;;;;;5034006;28;20033;-67
2022/12/05 06:33:35;;;;;;;19.73;8.85;;;6.70;99.90;;;;;;5033811;28;20025;-67
2022/12/05 06:36:06;;;;;;;17.58;7.97;;;6.70;99.90;;;;;;5033790;28;20032;-67
2022/12/05 06:38:31;;;;;;;20.83;9.70;;;6.70;99.90;;;;;;5033682;28;20033;-67
2022/12/05 06:40:57;;;;;;;21.48;9.57;;;6.70;99.90;;;;;;5033156;28;20473;-67
2022/12/05 06:43:23;;;;;;;20.05;9.05;;;6.70;99.90;;;;;;5033977;28;20025;-67
2022/12/05 06:45:48;;;;;;;18.48;8.48;;;6.70;99.90;;;;;;5033723;28;20044;-69
2022/12/05 06:48:14;;;;;;;20.85;9.15;;;6.70;99.90;;;;;;5033748;28;20093;-67
2022/12/05 06:50:46;;;;;;;19.60;8.38;;;6.70;99.90;;;;;;5033538;28;20049;-67
2022/12/05 06:53:11;;;;;;;15.88;7.25;;;6.70;99.90;;;;;;5033594;28;20075;-67
2022/12/05 06:55:37;;;;;;;18.60;8.52;;;6.70;99.90;;;;;;5033534;28;20033;-67
2022/12/05 06:58:02;;;;;;;20.33;8.60;;;6.70;99.90;;;;;;5033564;28;20334;-68
2022/12/05 07:03:12;;;;;;;19.05;8.63;;;6.70;99.90;;;;;;5033169;28;20040;-67
2022/12/05 07:05:38;;;;;;;16.58;7.05;;;6.70;99.90;;;;;;5032653;28;20025;-69
2022/12/05 07:08:03;;;;;;;22.60;9.57;;;6.70;99.90;;;;;;5033127;28;20025;-67
2022/12/05 07:10:29;;;;;;;20.83;8.20;;;6.70;99.90;;;;;;5033386;28;20042;-68
2022/12/05 07:12:55;;;;;;;19.80;8.70;;;6.80;99.90;;;;;;5031749;28;20043;-67
2022/12/05 07:15:21;;;;;;;18.65;7.95;;;6.80;99.90;;;;;;5032221;28;20108;-67
2022/12/05 07:17:46;;;;;;;18.83;8.52;;;6.80;99.90;;;;;;5031900;28;20365;-67
2022/12/05 07:20:16;;;;;;;21.50;8.20;;;6.90;99.90;;;;;;5032448;28;20021;-67
2022/12/05 07:22:44;;;;;;;18.15;7.60;;;6.90;99.90;;;;;;5032719;28;20048;-69
2022/12/05 07:25:10;;;;;;;20.00;8.10;;;7.00;99.90;;;;;;5033082;28;20024;-69
2022/12/05 07:27:35;;;;;;;18.90;8.52;;;7.00;99.90;;;;;;5033146;28;20365;-68
2022/12/05 07:30:01;;;;;;;21.73;8.65;;;7.00;99.90;;;;;;5032989;28;20453;-67
2022/12/05 07:32:31;;;;;;;16.98;7.63;;;7.10;99.90;;;;;;5032592;28;20416;-67
2022/12/05 07:34:56;;;;;;;17.35;8.27;;;7.10;99.90;;;;;;5033027;28;20044;-69
2022/12/05 07:37:22;;;;;;;19.58;8.13;;;7.10;99.90;;;;;;5032775;28;20060;-67
2022/12/05 07:39:49;;;;;;;21.67;9.13;;;7.10;99.90;;;;;;5032908;28;20033;-69
2022/12/05 07:42:14;;;;;;;20.15;8.13;;;7.20;99.90;;;;;;5033038;28;20025;-68
2022/12/05 07:44:40;;;;;;;19.15;9.07;;;7.20;99.90;;;;;;5031173;28;20052;-68
2022/12/05 07:47:05;;;;;;;19.75;8.45;;;7.20;99.90;;;;;;5032855;28;20091;-67
2022/12/05 07:49:31;;;;;;;19.17;7.70;;;7.20;99.90;;;;;;5032752;28;20052;-67
2022/12/05 07:51:56;;;;;;;18.35;7.43;;;7.20;99.90;;;;;;5034155;28;20025;-67
2022/12/05 07:54:22;;;;;;;15.68;6.78;;;7.20;99.90;;;;;;5038049;28;20431;-67
2022/12/05 07:56:47;;;;;;;14.93;6.22;;;7.30;99.90;;;;;;5039294;28;20060;-66
2022/12/05 07:59:13;;;;;;;17.50;7.35;;;7.20;99.90;;;;;;5039282;28;20060;-70
2022/12/05 08:01:38;;;;;;;16.38;7.07;;;7.20;99.90;;;;;;5037727;28;20022;-70
2022/12/05 08:04:04;;;;;;;15.07;6.90;;;7.20;99.90;;;;;;5039085;28;20400;-67
2022/12/05 08:06:30;;;;;;;18.15;7.55;;;7.20;99.90;;;;;;5038145;28;20021;-69
2022/12/05 08:08:56;;;;;;;16.80;7.40;;;7.20;99.90;;;;;;5039377;28;20032;-67
2022/12/05 08:11:25;;;;;;;18.75;7.93;;;7.20;99.90;;;;;;5039224;28;20041;-69
2022/12/05 08:13:52;;;;;;;14.27;6.22;;;7.30;99.90;;;;;;5039087;28;20472;-65
2022/12/05 08:16:21;;;;;;;15.88;6.18;;;7.30;99.90;;;;;;5039317;28;20043;-69
2022/12/05 08:18:47;;;;;;;15.35;7.03;;;7.30;99.90;;;;;;5039647;28;20108;-68
2022/12/05 08:21:17;;;;;;;13.13;6.32;;;7.30;99.90;;;;;;5039115;28;20093;-68
2022/12/05 08:23:43;;;;;;;18.60;7.20;;;7.30;99.90;;;;;;5039164;28;20032;-69
2022/12/05 08:26:12;;;;;;;16.63;6.22;;;7.30;99.90;;;;;;5039364;28;20030;-68
2022/12/05 08:28:38;;;;;;;16.55;7.20;;;7.30;99.90;;;;;;5038928;28;20049;-67
2022/12/05 08:31:12;;;;;;;18.42;7.57;;;7.30;99.90;;;;;;5038958;28;20468;-68
2022/12/05 08:33:38;;;;;;;16.42;6.60;;;7.30;99.90;;;;;;5039261;28;20026;-65
2022/12/05 08:36:06;;;;;;;16.30;6.90;;;7.30;99.90;;;;;;5039280;28;20025;-70
2022/12/05 08:38:32;;;;;;;16.48;7.35;;;7.30;99.90;;;;;;5039026;28;20029;-68
2022/12/05 08:41:22;;;;;;;17.63;7.45;;;7.30;99.90;;;;;;5038250;28;20025;-68
2022/12/05 08:43:48;;;;;;;15.82;6.30;;;7.40;99.90;;;;;;5038778;28;20469;-69
2022/12/05 08:46:13;;;;;;;17.50;6.78;;;7.40;99.90;;;;;;5036409;28;20111;-67
2022/12/05 08:48:39;;;;;;;15.48;6.20;;;7.40;99.90;;;;;;5038650;28;20446;-69
2022/12/05 08:51:10;;;;;;;15.23;6.15;;;7.40;99.90;;;;;;5038977;28;20452;-66
2022/12/05 08:53:36;;;;;;;17.42;6.47;;;7.40;99.90;;;;;;5038869;28;20128;-69
2022/12/05 08:56:04;;;;;;;16.17;6.35;;;7.40;99.90;;;;;;5038471;28;20033;-66
2022/12/05 08:58:30;;;;;;;15.45;6.35;;;7.30;99.90;;;;;;5038206;28;20038;-67
2022/12/05 09:01:07;;;;;;;15.30;6.70;;;7.40;99.90;;;;;;5038495;28;20037;-67
2022/12/05 09:03:33;;;;;;;14.25;6.10;;;7.40;99.90;;;;;;5036595;28;20017;-67
2022/12/05 09:06:09;;;;;;;15.20;6.40;;;7.40;99.90;;;;;;5035502;28;20441;-70
2022/12/05 09:08:35;;;;;;;14.32;6.20;;;7.40;99.90;;;;;;5035446;28;20072;-67
2022/12/05 09:11:10;;;;;;;13.45;5.45;;;7.40;99.90;;;;;;5035393;28;20124;-69
2022/12/05 09:13:35;;;;;;;12.52;5.57;;;7.40;99.90;;;;;;5034630;28;20171;-67
2022/12/05 09:16:09;;;;;;;18.30;6.65;;;7.40;99.90;;;;;;5035545;28;20112;-70
2022/12/05 09:18:34;;;;;;;17.02;6.78;;;7.40;99.90;;;;;;5035549;28;20021;-69
2022/12/05 09:21:08;;;;;;;16.25;6.97;;;7.40;99.90;;;;;;5035060;28;20032;-67
2022/12/05 09:23:35;;;;;;;15.27;6.15;;;7.50;99.90;;;;;;5034829;28;20025;-69
2022/12/05 09:26:01;;;;;;;15.75;6.60;;;7.50;99.90;;;;;;5034851;28;20033;-67
2022/12/05 09:28:27;;;;;;;15.60;6.05;;;7.50;99.90;;;;;;5032688;28;20160;-68
2022/12/05 09:31:00;;;;;;;15.70;6.55;;;7.50;99.90;;;;;;5035225;28;20033;-68
2022/12/05 09:33:31;;;;;;;16.50;6.35;;;7.50;99.90;;;;;;5035073;28;20029;-68
2022/12/05 09:35:56;;;;;;;15.02;6.03;;;7.50;99.90;;;;;;5035133;28;20104;-69
2022/12/05 09:38:23;;;;;;;16.70;6.15;;;7.50;99.90;;;;;;5034680;28;20422;-68
2022/12/05 09:41:08;;;;;;;17.77;5.85;;;7.40;99.90;;;;;;5034483;28;20024;-66
2022/12/05 09:43:46;;;;;;;14.80;6.32;;;7.40;99.90;;;;;;5035338;28;20033;-67
2022/12/05 09:46:33;;;;;;;14.05;5.63;;;7.40;99.90;;;;;;5034779;28;20123;-66
2022/12/05 09:49:01;;;;;;;14.57;6.05;;;7.40;99.90;;;;;;5034891;28;20022;-68
2022/12/05 09:51:27;;;;;;;12.95;6.75;;;7.40;99.90;;;;;;5021044;28;20044;-68
2022/12/05 09:53:53;;;;;;;15.90;6.28;;;7.40;99.90;;;;;;5033820;28;20025;-68
2022/12/05 09:56:28;;;;;;;16.88;5.85;;;7.40;99.90;;;;;;5034203;28;20026;-65
2022/12/05 09:58:56;;;;;;;21.20;6.90;;;7.40;99.90;;;;;;5034579;28;20096;-66
2022/12/05 10:01:41;;;;;;;19.77;7.13;;;7.40;99.90;;;;;;5034151;28;20029;-67
2022/12/05 10:04:25;;;;;;;19.42;7.05;;;7.40;99.90;;;;;;5034385;28;20040;-69
2022/12/05 10:07:06;;;;;;;14.65;6.15;;;7.40;99.90;;;;;;5034313;28;20025;-68
2022/12/05 10:10:02;;;;;;;14.60;6.00;;;7.40;99.90;;;;;;5034677;28;20044;-68
2022/12/05 10:13:09;;;;;;;14.90;7.05;;;7.30;99.90;;;;;;5034392;28;20021;-67
2022/12/05 10:15:44;;;;;;;16.95;6.63;;;7.40;99.90;;;;;;5031620;28;20117;-66
2022/12/05 10:18:31;;;;;;;29.27;8.20;;;7.40;99.90;;;;;;5032521;28;20067;-68
2022/12/05 10:21:08;;;;;;;15.63;6.13;;;7.40;99.90;;;;;;5033239;28;20025;-69
2022/12/05 10:23:37;;;;;;;22.10;7.70;;;7.40;99.90;;;;;;5032426;28;20021;-66
2022/12/05 10:26:06;;;;;;;15.90;6.88;;;7.40;99.90;;;;;;5032613;28;20014;-67
2022/12/05 10:28:58;;;;;;;11.82;5.05;;;7.50;99.90;;;;;;5032794;28;20026;-68
2022/12/05 10:31:29;;;;;;;19.05;7.65;;;7.40;99.90;;;;;;5031740;28;20048;-69
2022/12/05 10:34:03;;;;;;;11.75;5.55;;;7.40;99.90;;;;;;5032142;28;20021;-69
2022/12/05 10:36:29;;;;;;;16.05;6.75;;;7.40;99.90;;;;;;5030334;28;20056;-66
2022/12/05 10:38:56;;;;;;;15.60;5.82;;;7.40;99.90;;;;;;5030796;28;20018;-67
2022/12/05 10:41:21;;;;;;;17.15;6.90;;;7.40;99.90;;;;;;5032189;28;20075;-66
2022/12/05 10:43:48;;;;;;;17.48;7.13;;;7.40;99.90;;;;;;5033026;28;20037;-68
2022/12/05 10:46:15;;;;;;;16.35;6.28;;;7.50;99.90;;;;;;5032183;28;20039;-69
2022/12/05 10:48:41;;;;;;;16.45;6.75;;;7.50;99.90;;;;;;5031153;28;20120;-68
2022/12/05 10:51:13;;;;;;;18.60;7.63;;;7.50;99.90;;;;;;5032342;28;20045;-69
2022/12/05 10:53:48;;;;;;;19.00;7.97;;;7.50;99.90;;;;;;5033411;28;20033;-68
2022/12/05 10:56:38;;;;;;;15.82;5.70;;;7.50;99.90;;;;;;5032226;28;20025;-68
2022/12/05 10:59:05;;;;;;;17.75;5.50;;;7.50;99.90;;;;;;5033022;28;20028;-69
2022/12/05 11:01:31;;;;;;;17.73;5.97;;;7.60;99.90;;;;;;5032917;28;20475;-69
2022/12/05 11:04:00;;;;;;;14.77;5.85;;;7.60;99.90;;;;;;5032393;28;20024;-68
2022/12/05 11:06:30;;;;;;;17.63;7.03;;;7.60;99.90;;;;;;5032848;28;20025;-68
2022/12/05 11:09:02;;;;;;;9.90;4.60;;;7.50;99.90;;;;;;5032839;28;20029;-69
2022/12/05 11:11:32;;;;;;;18.73;6.43;;;7.50;99.90;;;;;;5032859;28;20372;-68
2022/12/05 11:14:06;;;;;;;14.25;5.70;;;7.50;99.90;;;;;;5033390;28;20017;-67
2022/12/05 11:16:37;;;;;;;16.88;7.28;;;7.50;99.90;;;;;;5033571;28;20028;-67
2022/12/05 11:19:21;;;;;;;14.63;5.55;;;7.60;99.90;;;;;;5033243;28;20017;-70
2022/12/05 11:21:48;;;;;;;16.92;6.18;;;7.60;99.90;;;;;;5033246;28;20067;-69
2022/12/05 11:24:31;;;;;;;19.67;6.15;;;7.70;99.90;;;;;;5031145;28;20029;-69
2022/12/05 11:26:59;;;;;;;12.88;4.95;;;7.70;99.90;;;;;;5032376;28;20092;-68
2022/12/05 11:29:28;;;;;;;17.77;6.28;;;7.70;99.90;;;;;;5032612;28;20061;-68
2022/12/05 11:31:53;;;;;;;16.40;5.85;;;7.80;99.90;;;;;;5032960;28;20041;-68
2022/12/05 11:34:36;;;;;;;12.95;6.03;;;7.80;99.90;;;;;;5032852;28;20022;-70
2022/12/05 11:37:13;;;;;;;13.07;4.95;;;7.80;99.90;;;;;;5032261;28;20501;-68
2022/12/05 11:39:39;;;;;;;15.70;5.60;;;7.80;99.90;;;;;;5031500;28;20111;-68
2022/12/05 11:42:32;;;;;;;18.65;5.78;;;7.70;99.90;;;;;;5034363;28;20028;-69
2022/12/05 11:45:02;;;;;;;;;;;7.70;99.90;;;;;;5050596;28;20065;-69
2022/12/05 11:48:01;;;;;;;17.58;6.38;;;7.80;99.90;;;;;;5052857;28;19908;-68
2022/12/05 11:50:59;;;;;;;19.08;5.53;;;7.70;99.90;;;;;;5032785;28;20037;-67
2022/12/05 11:53:48;;;;;;;14.68;5.43;;;7.80;99.90;;;;;;5031763;28;20045;-70
2022/12/05 11:56:16;;;;;;;17.00;5.70;;;7.80;99.90;;;;;;5032882;28;20464;-69
2022/12/05 11:59:14;;;;;;;18.88;6.13;;;7.80;99.90;;;;;;5049606;28;20021;-70
2022/12/05 12:01:59;;;;;;;15.82;5.95;;;7.80;99.90;;;;;;5050987;28;20031;-69
2022/12/05 12:04:44;;;;;;;16.40;5.15;;;7.80;99.90;;;;;;5052572;28;20021;-65
2022/12/05 12:07:24;;;;;;;18.35;6.53;;;7.70;99.90;;;;;;5052620;28;20021;-66
2022/12/05 12:09:59;;;;;;;22.35;7.32;;;7.80;99.90;;;;;;5052319;28;20032;-68
2022/12/05 12:12:45;;;;;;;18.50;6.57;;;7.80;99.90;;;;;;5052882;28;20032;-67
2022/12/05 12:15:31;;;;;;;19.63;6.72;;;7.80;99.90;;;;;;5040000;28;20446;-69
2022/12/05 12:18:36;;;;;;;13.30;6.00;;;7.80;99.90;;;;;;5032603;28;20017;-70
2022/12/05 12:21:25;;;;;;;24.92;7.57;;;7.90;99.90;;;;;;5032547;28;20120;-69
2022/12/05 12:24:17;;;;;;;20.13;7.38;;;7.90;99.90;;;;;;5032472;28;20040;-68
2022/12/05 12:26:56;;;;;;;18.95;6.32;;;7.90;99.90;;;;;;5032404;28;20045;-67
2022/12/05 12:30:00;;;;;;;17.70;5.82;;;7.90;99.90;;;;;;5032178;28;20506;-67
2022/12/05 12:32:40;;;;;;;20.73;7.80;;;8.00;99.90;;;;;;5032360;28;20025;-66
2022/12/05 12:35:35;;;;;;;20.25;7.82;;;8.10;99.90;;;;;;5032553;28;20117;-68
2022/12/05 12:38:16;;;;;;;31.95;7.57;;;8.10;99.90;;;;;;5030119;28;20018;-69
2022/12/05 12:40:44;;;;;;;25.98;7.78;;;8.20;99.90;;;;;;5035664;28;20033;-68
2022/12/05 12:43:48;;;;;;;27.27;7.97;;;8.20;99.90;;;;;;5035549;28;20037;-66
2022/12/05 12:46:46;;;;;;;30.52;8.75;;;8.20;99.90;;;;;;5034443;28;20440;-70
2022/12/05 12:49:20;;;;;;;27.38;7.85;;;8.10;99.90;;;;;;5047119;28;20013;-69
2022/12/05 12:51:53;;;;;;;18.38;6.35;;;8.10;99.90;;;;;;5055801;28;20033;-67
2022/12/05 12:54:30;;;;;;;23.58;6.90;;;8.10;99.90;;;;;;5055953;28;20035;-67
2022/12/05 12:57:12;;;;;;;19.98;6.45;;;8.10;99.90;;;;;;5055740;28;20029;-69
2022/12/05 12:59:46;;;;;;;13.25;4.85;;;8.10;99.90;;;;;;5054938;28;20027;-67
2022/12/05 13:02:35;;;;;;;15.35;6.20;;;8.10;99.90;;;;;;5055430;28;20108;-69
2022/12/05 13:05:04;;;;;;;18.92;5.80;;;8.00;99.90;;;;;;5055100;28;20045;-69
2022/12/05 13:07:55;;;;;;;19.67;6.60;;;8.00;99.90;;;;;;5055885;28;20070;-66
2022/12/05 13:10:44;;;;;;;13.45;4.85;;;7.90;99.90;;;;;;5042606;28;20114;-69
2022/12/05 13:13:18;;;;;;;16.85;6.13;;;7.90;99.90;;;;;;5034895;28;20033;-69
2022/12/05 13:15:51;;;;;;;18.10;6.45;;;7.90;99.90;;;;;;5035580;28;20017;-67